createdAt,value
2022-12-12T00:01:49.215Z,1.10
2022-12-12T00:04:16.004Z,1.10
2022-12-12T00:06:44.143Z,1.10
2022-12-12T00:09:10.939Z,1.00
2022-12-12T00:11:37.699Z,0.90
2022-12-12T00:14:05.014Z,0.90
2022-12-12T00:16:31.726Z,0.90
2022-12-12T00:18:59.363Z,0.90
2022-12-12T00:21:28.327Z,0.90
2022-12-12T00:23:55.800Z,0.90
2022-12-12T00:26:27.130Z,0.70
2022-12-12T00:28:54.039Z,0.60
2022-12-12T00:31:20.865Z,0.40
2022-12-12T00:33:49.958Z,0.30
2022-12-12T00:36:19.769Z,0.40
2022-12-12T00:38:47.001Z,0.40
2022-12-12T00:41:13.813Z,0.40
2022-12-12T00:43:41.028Z,0.40
2022-12-12T00:46:08.349Z,0.40
2022-12-12T00:48:35.295Z,0.50
2022-12-12T00:51:08.727Z,0.50
2022-12-12T00:53:37.005Z,0.60
2022-12-12T00:56:04.126Z,0.60
2022-12-12T00:58:31.768Z,0.60
2022-12-12T01:01:06.208Z,0.50
2022-12-12T01:03:34.945Z,0.50
2022-12-12T01:06:01.881Z,0.50
2022-12-12T01:08:29.030Z,0.50
2022-12-12T01:10:56.459Z,0.40
2022-12-12T01:13:23.890Z,0.40
2022-12-12T01:15:50.652Z,0.30
2022-12-12T01:18:18.152Z,0.10
2022-12-12T01:20:45.520Z,0.10
2022-12-12T01:23:12.357Z,0.00
2022-12-12T01:25:39.119Z,-0.10
2022-12-12T01:28:06.172Z,-0.20
2022-12-12T01:30:33.137Z,-0.30
2022-12-12T01:32:59.865Z,-0.40
2022-12-12T01:35:26.876Z,-0.40
2022-12-12T01:37:54.284Z,-0.50
2022-12-12T01:40:30.658Z,-0.50
2022-12-12T01:42:57.451Z,-0.50
2022-12-12T01:46:02.522Z,-0.60
2022-12-12T01:48:39.898Z,-0.50
2022-12-12T01:51:18.124Z,-0.50
2022-12-12T01:53:45.735Z,-0.50
2022-12-12T01:56:15.454Z,-0.40
2022-12-12T01:58:45.936Z,-0.50
2022-12-12T02:01:13.073Z,-0.40
2022-12-12T02:03:40.601Z,-0.20
2022-12-12T02:06:12.166Z,-0.20
2022-12-12T02:08:39.753Z,0.00
2022-12-12T02:11:06.630Z,0.00
2022-12-12T02:13:34.906Z,0.10
2022-12-12T02:16:20.565Z,0.00
2022-12-12T02:19:02.954Z,0.00
2022-12-12T02:22:11.970Z,0.00
2022-12-12T02:24:59.305Z,-0.10
2022-12-12T02:27:39.864Z,-0.10
2022-12-12T02:30:12.993Z,-0.20
2022-12-12T02:32:58.270Z,-0.30
2022-12-12T02:35:40.166Z,-0.50
2022-12-12T02:38:09.890Z,-0.60
2022-12-12T02:41:11.066Z,-0.70
2022-12-12T02:43:51.856Z,-0.80
2022-12-12T02:46:27.667Z,-0.90
2022-12-12T02:49:03.089Z,-0.90
2022-12-12T02:51:32.074Z,-0.90
2022-12-12T02:54:05.484Z,-1.00
2022-12-12T02:56:53.373Z,-1.00
2022-12-12T02:59:35.332Z,-1.10
2022-12-12T03:02:15.598Z,-1.20
2022-12-12T03:05:03.968Z,-1.30
2022-12-12T03:07:48.376Z,-1.20
2022-12-12T03:10:32.316Z,-1.10
2022-12-12T03:13:42.584Z,-1.10
2022-12-12T03:16:25.570Z,-1.00
2022-12-12T03:19:00.746Z,-1.00
2022-12-12T03:21:43.215Z,-0.90
2022-12-12T03:24:28.146Z,-0.80
2022-12-12T03:27:20.554Z,-0.80
2022-12-12T03:29:55.857Z,-0.70
2022-12-12T03:32:27.631Z,-0.60
2022-12-12T03:35:03.177Z,-0.60
2022-12-12T03:37:41.522Z,-0.60
2022-12-12T03:40:20.608Z,-0.60
2022-12-12T03:43:08.013Z,-0.50
2022-12-12T03:45:40.989Z,-0.60
2022-12-12T03:48:27.594Z,-0.50
2022-12-12T03:51:00.495Z,-0.50
2022-12-12T03:53:59.266Z,-0.50
2022-12-12T03:56:34.399Z,-0.40
2022-12-12T03:59:10.162Z,-0.40
2022-12-12T04:01:44.049Z,-0.40
2022-12-12T04:04:34.465Z,-0.50
2022-12-12T04:07:13.703Z,-0.50
2022-12-12T04:09:59.851Z,-0.70
2022-12-12T04:12:58.569Z,-0.80
2022-12-12T04:15:34.185Z,-0.80
2022-12-12T04:18:17.010Z,-0.90
2022-12-12T04:21:12.855Z,-1.00
2022-12-12T04:23:54.479Z,-1.10
2022-12-12T04:26:40.619Z,-1.20
2022-12-12T04:29:19.177Z,-1.30
2022-12-12T04:32:00.921Z,-1.40
2022-12-12T04:34:56.057Z,-1.40
2022-12-12T04:37:27.717Z,-1.40
2022-12-12T04:39:58.226Z,-1.40
2022-12-12T04:42:29.303Z,-1.40
2022-12-12T04:45:03.120Z,-1.40
2022-12-12T04:47:31.934Z,-1.40
2022-12-12T04:50:00.575Z,-1.50
2022-12-12T04:52:31.045Z,-1.50
2022-12-12T04:55:09.085Z,-1.50
2022-12-12T04:57:41.226Z,-1.60
2022-12-12T05:00:10.133Z,-1.60
2022-12-12T05:02:45.239Z,-1.70
2022-12-12T05:05:44.499Z,-1.70
2022-12-12T05:08:14.031Z,-1.60
2022-12-12T05:10:46.190Z,-1.50
2022-12-12T05:13:18.282Z,-1.50
2022-12-12T05:15:46.813Z,-1.50
2022-12-12T05:18:13.864Z,-1.50
2022-12-12T05:20:40.564Z,-1.50
2022-12-12T05:23:07.324Z,-1.50
2022-12-12T05:25:34.029Z,-1.60
2022-12-12T05:28:00.689Z,-1.70
2022-12-12T05:30:27.545Z,-1.70
2022-12-12T05:32:54.605Z,-1.70
2022-12-12T05:35:22.035Z,-1.80
2022-12-12T05:37:51.928Z,-1.80
2022-12-12T05:40:20.211Z,-1.70
2022-12-12T05:42:48.038Z,-1.70
2022-12-12T05:45:15.337Z,-1.60
2022-12-12T05:47:42.062Z,-1.60
2022-12-12T05:50:08.852Z,-1.70
2022-12-12T05:52:35.657Z,-1.70
2022-12-12T05:55:02.765Z,-1.70
2022-12-12T05:57:29.758Z,-1.80
2022-12-12T05:59:56.432Z,-1.80
2022-12-12T06:02:23.179Z,-2.00
2022-12-12T06:04:49.917Z,-2.00
2022-12-12T06:07:16.643Z,-2.10
2022-12-12T06:09:43.472Z,-2.10
2022-12-12T06:12:10.134Z,-2.20
2022-12-12T06:14:36.778Z,-2.20
2022-12-12T06:17:03.511Z,-2.30
2022-12-12T06:19:30.364Z,-2.30
2022-12-12T06:21:57.213Z,-2.30
2022-12-12T06:24:24.774Z,-2.40
2022-12-12T06:26:51.454Z,-2.40
2022-12-12T06:29:18.134Z,-2.40
2022-12-12T06:31:48.515Z,-2.40
2022-12-12T06:34:15.698Z,-2.30
2022-12-12T06:36:42.454Z,-2.30
2022-12-12T06:39:09.754Z,-2.30
2022-12-12T06:41:36.918Z,-2.30
2022-12-12T06:44:04.356Z,-2.30
2022-12-12T06:46:31.287Z,-2.20
2022-12-12T06:48:58.884Z,-2.20
2022-12-12T06:51:33.206Z,-2.20
2022-12-12T06:54:00.198Z,-2.20
2022-12-12T06:56:27.373Z,-2.30
2022-12-12T06:58:55.100Z,-2.40
2022-12-12T07:01:23.164Z,-2.30
2022-12-12T07:03:51.652Z,-2.20
2022-12-12T07:06:20.480Z,-2.10
2022-12-12T07:08:47.544Z,-2.10
2022-12-12T07:11:17.739Z,-2.10
2022-12-12T07:13:44.571Z,-2.10
2022-12-12T07:16:11.519Z,-2.00
2022-12-12T07:18:38.842Z,-1.90
2022-12-12T07:21:07.734Z,-1.90
2022-12-12T07:23:37.175Z,-2.00
2022-12-12T07:26:06.049Z,-2.00
2022-12-12T07:28:33.001Z,-2.10
2022-12-12T07:31:01.281Z,-2.10
2022-12-12T07:33:39.544Z,-2.00
2022-12-12T07:36:10.168Z,-1.90
2022-12-12T07:38:37.093Z,-1.90
2022-12-12T07:41:06.037Z,-1.80
2022-12-12T07:43:38.556Z,-1.80
2022-12-12T07:46:11.723Z,-1.80
2022-12-12T07:48:38.552Z,-1.70
2022-12-12T07:51:05.497Z,-1.60
2022-12-12T07:53:32.422Z,-1.60
2022-12-12T07:55:59.369Z,-1.50
2022-12-12T07:58:26.115Z,-1.50
2022-12-12T08:00:52.849Z,-1.30
2022-12-12T08:03:19.566Z,-1.20
2022-12-12T08:05:46.281Z,-1.20
2022-12-12T08:08:13.018Z,-1.20
2022-12-12T08:10:41.065Z,-1.20
2022-12-12T08:13:07.909Z,-1.10
2022-12-12T08:15:34.956Z,-1.20
2022-12-12T08:18:02.078Z,-1.10
2022-12-12T08:20:29.204Z,-1.00
2022-12-12T08:22:55.936Z,-0.90
2022-12-12T08:25:22.621Z,-0.90
2022-12-12T08:27:49.366Z,-0.80
2022-12-12T08:30:16.384Z,-0.80
2022-12-12T08:32:43.287Z,-0.80
2022-12-12T08:35:10.112Z,-0.70
2022-12-12T08:37:37.103Z,-0.70
2022-12-12T08:40:04.300Z,-0.70
2022-12-12T08:42:31.015Z,-0.60
2022-12-12T08:44:57.659Z,-0.50
2022-12-12T08:47:24.517Z,-0.60
2022-12-12T08:49:51.224Z,-0.50
2022-12-12T08:52:17.916Z,-0.40
2022-12-12T08:54:44.736Z,-0.50
2022-12-12T08:57:11.518Z,-0.30
2022-12-12T08:59:38.274Z,-0.20
2022-12-12T09:02:05.031Z,-0.20
2022-12-12T09:04:33.534Z,-0.10
2022-12-12T09:07:04.920Z,-0.10
2022-12-12T09:09:34.857Z,-0.20
2022-12-12T09:12:01.693Z,-0.10
2022-12-12T09:14:28.353Z,-0.20
2022-12-12T09:16:55.267Z,-0.30
2022-12-12T09:19:21.984Z,-0.20
2022-12-12T09:21:48.715Z,-0.20
2022-12-12T09:24:16.694Z,-0.20
2022-12-12T09:26:43.361Z,-0.20
2022-12-12T09:29:10.853Z,-0.30
2022-12-12T09:31:37.583Z,-0.20
2022-12-12T09:34:04.329Z,-0.20
2022-12-12T09:36:31.028Z,-0.10
2022-12-12T09:38:59.134Z,-0.20
2022-12-12T09:41:27.216Z,-0.10
2022-12-12T09:44:02.637Z,0.00
2022-12-12T09:46:55.515Z,0.10
2022-12-12T09:49:43.989Z,0.20
2022-12-12T09:52:17.402Z,0.40
2022-12-12T09:54:45.121Z,0.40
2022-12-12T09:57:35.643Z,0.30
2022-12-12T10:00:04.936Z,0.20
2022-12-12T10:02:48.047Z,0.40
2022-12-12T10:05:17.852Z,0.40
2022-12-12T10:07:55.974Z,0.50
2022-12-12T10:10:27.394Z,0.50
2022-12-12T10:12:55.200Z,0.00
2022-12-12T10:15:42.178Z,0.10
2022-12-12T10:18:20.976Z,0.30
2022-12-12T10:20:51.385Z,0.40
2022-12-12T10:23:46.242Z,0.60
2022-12-12T10:26:22.482Z,0.60
2022-12-12T10:28:57.237Z,0.50
2022-12-12T10:31:40.334Z,0.20
2022-12-12T10:34:22.572Z,0.30
2022-12-12T10:37:26.156Z,0.30
2022-12-12T10:40:18.678Z,0.30
2022-12-12T10:42:52.841Z,0.50
2022-12-12T10:45:42.979Z,0.70
2022-12-12T10:48:10.744Z,0.80
2022-12-12T10:50:42.405Z,0.90
2022-12-12T10:53:11.597Z,1.00
2022-12-12T10:56:02.503Z,1.00
2022-12-12T10:58:40.223Z,0.90
2022-12-12T11:01:32.986Z,0.80
2022-12-12T11:04:07.158Z,0.40
2022-12-12T11:06:40.493Z,0.40
2022-12-12T11:09:09.151Z,0.60
2022-12-12T11:11:35.872Z,0.70
2022-12-12T11:14:19.913Z,0.70
2022-12-12T11:16:46.632Z,0.70
2022-12-12T11:19:25.065Z,0.70
2022-12-12T11:21:54.640Z,0.80
2022-12-12T11:24:29.045Z,0.90
2022-12-12T11:27:02.602Z,0.90
2022-12-12T11:29:45.406Z,0.90
2022-12-12T11:32:16.209Z,0.90
2022-12-12T11:34:53.351Z,0.70
2022-12-12T11:37:23.945Z,0.70
2022-12-12T11:39:52.988Z,0.90
2022-12-12T11:42:25.534Z,0.90
2022-12-12T11:45:19.570Z,1.10
2022-12-12T11:47:47.720Z,1.10
2022-12-12T11:50:29.508Z,1.30
2022-12-12T11:53:00.429Z,1.30
2022-12-12T11:55:52.781Z,0.80
2022-12-12T11:58:32.694Z,0.50
2022-12-12T12:01:23.202Z,0.40
2022-12-12T12:04:40.830Z,0.50
2022-12-12T12:07:40.354Z,0.60
2022-12-12T12:10:13.030Z,0.60
2022-12-12T12:12:57.451Z,0.70
2022-12-12T12:15:35.183Z,0.70
2022-12-12T12:18:09.378Z,0.70
2022-12-12T12:20:51.220Z,0.70
2022-12-12T12:23:54.792Z,0.70
2022-12-12T12:26:43.398Z,0.60
2022-12-12T12:29:20.443Z,0.60
2022-12-12T12:32:22.653Z,0.70
2022-12-12T12:34:55.125Z,0.60
2022-12-12T12:37:30.696Z,0.60
2022-12-12T12:40:09.761Z,0.70
2022-12-12T12:43:01.905Z,0.60
2022-12-12T12:45:39.240Z,0.70
2022-12-12T12:48:31.642Z,0.90
2022-12-12T12:51:34.395Z,0.80
2022-12-12T12:54:03.955Z,0.80
2022-12-12T12:56:33.815Z,1.00
2022-12-12T12:59:04.392Z,1.00
2022-12-12T13:01:36.707Z,1.10
2022-12-12T13:04:22.451Z,1.20
2022-12-12T13:07:00.961Z,1.30
2022-12-12T13:09:41.469Z,1.40
2022-12-12T13:12:38.677Z,1.50
2022-12-12T13:15:14.314Z,1.50
2022-12-12T13:17:46.877Z,1.50
2022-12-12T13:20:21.022Z,1.60
2022-12-12T13:22:50.973Z,1.70
2022-12-12T13:25:36.177Z,1.70
2022-12-12T13:28:10.893Z,1.80
2022-12-12T13:30:46.412Z,1.60
2022-12-12T13:33:51.703Z,1.70
2022-12-12T13:36:30.012Z,1.60
2022-12-12T13:39:00.213Z,1.70
2022-12-12T13:41:26.926Z,1.80
2022-12-12T13:43:59.241Z,1.90
2022-12-12T13:46:28.735Z,2.00
2022-12-12T13:49:14.011Z,2.00
2022-12-12T13:51:43.205Z,2.00
2022-12-12T13:54:13.856Z,1.90
2022-12-12T13:56:42.266Z,1.90
2022-12-12T13:59:27.098Z,1.90
2022-12-12T14:02:20.170Z,1.90
2022-12-12T14:04:47.799Z,1.90
2022-12-12T14:07:17.549Z,1.90
2022-12-12T14:09:49.299Z,1.80
2022-12-12T14:12:31.739Z,1.70
2022-12-12T14:15:17.857Z,1.70
2022-12-12T14:17:53.433Z,1.70
2022-12-12T14:20:35.561Z,1.80
2022-12-12T14:23:09.879Z,1.70
2022-12-12T14:25:38.969Z,1.90
2022-12-12T14:28:25.345Z,2.00
2022-12-12T14:31:17.453Z,2.00
2022-12-12T14:34:05.814Z,1.90
2022-12-12T14:36:49.639Z,1.90
2022-12-12T14:39:31.268Z,1.80
2022-12-12T14:41:59.061Z,1.70
2022-12-12T14:44:35.239Z,1.50
2022-12-12T14:47:08.563Z,1.50
2022-12-12T14:49:35.576Z,1.40
2022-12-12T14:52:02.770Z,1.40
2022-12-12T14:54:31.090Z,1.50
2022-12-12T14:56:59.277Z,1.30
2022-12-12T14:59:29.617Z,1.20
2022-12-12T15:02:21.218Z,1.20
2022-12-12T15:04:52.705Z,1.10
2022-12-12T15:07:34.735Z,0.90
2022-12-12T15:10:01.967Z,0.90
2022-12-12T15:12:43.044Z,0.70
2022-12-12T15:15:30.997Z,0.70
2022-12-12T15:18:00.360Z,0.50
2022-12-12T15:20:29.862Z,0.30
2022-12-12T15:23:05.471Z,0.20
2022-12-12T15:25:43.005Z,0.30
2022-12-12T15:28:18.869Z,0.10
2022-12-12T15:30:49.199Z,0.00
2022-12-12T15:33:22.056Z,0.00
2022-12-12T15:36:02.737Z,0.00
2022-12-12T15:38:30.920Z,0.00
2022-12-12T15:40:59.831Z,-0.10
2022-12-12T15:43:29.077Z,-0.20
2022-12-12T15:46:02.503Z,-0.10
2022-12-12T15:48:29.233Z,-0.10
2022-12-12T15:51:04.972Z,-0.10
2022-12-12T15:53:37.581Z,-0.10
2022-12-12T15:56:14.153Z,-0.10
2022-12-12T15:58:46.760Z,0.00
2022-12-12T16:01:21.767Z,-0.10
2022-12-12T16:04:09.997Z,-0.10
2022-12-12T16:06:40.881Z,-0.20
2022-12-12T16:09:10.563Z,-0.30
2022-12-12T16:11:41.899Z,-0.30
2022-12-12T16:14:23.788Z,-0.40
2022-12-12T16:17:20.650Z,-0.50
2022-12-12T16:19:55.140Z,-0.60
2022-12-12T16:22:39.745Z,-0.60
2022-12-12T16:25:25.527Z,-0.60
2022-12-12T16:28:24.777Z,-0.70
2022-12-12T16:31:03.691Z,-0.80
2022-12-12T16:33:35.094Z,-0.80
2022-12-12T16:36:04.859Z,-0.80
2022-12-12T16:38:32.312Z,-0.80
2022-12-12T16:41:01.824Z,-0.90
2022-12-12T16:43:28.890Z,-0.90
2022-12-12T16:45:56.575Z,-0.80
2022-12-12T16:48:31.454Z,-0.90
2022-12-12T16:51:02.201Z,-0.80
2022-12-12T16:53:28.978Z,-0.90
2022-12-12T16:55:56.608Z,-0.90
2022-12-12T16:58:26.384Z,-1.00
2022-12-12T17:00:53.568Z,-1.00
2022-12-12T17:03:23.303Z,-1.00
2022-12-12T17:05:51.257Z,-1.10
2022-12-12T17:08:18.724Z,-1.10
2022-12-12T17:10:48.022Z,-1.10
2022-12-12T17:13:17.537Z,-1.20
2022-12-12T17:15:44.266Z,-1.30
2022-12-12T17:18:11.574Z,-1.20
2022-12-12T17:20:38.296Z,-1.30
2022-12-12T17:25:51.178Z,-1.30
2022-12-12T17:28:20.050Z,-1.30
2022-12-12T17:30:49.847Z,-1.30
2022-12-12T17:33:19.443Z,-1.30
2022-12-12T17:35:56.248Z,-1.30
2022-12-12T17:38:22.945Z,-1.40
2022-12-12T17:40:53.727Z,-1.50
2022-12-12T17:43:20.495Z,-1.50
2022-12-12T17:45:57.579Z,-1.50
2022-12-12T17:48:24.300Z,-1.50
2022-12-12T17:51:05.185Z,-1.60
2022-12-12T17:53:38.185Z,-1.60
2022-12-12T17:56:13.821Z,-1.60
2022-12-12T17:58:42.864Z,-1.70
2022-12-12T18:01:19.063Z,-1.80
2022-12-12T18:03:46.403Z,-1.80
2022-12-12T18:06:14.528Z,-1.80
2022-12-12T18:08:41.965Z,-1.80
2022-12-12T18:11:10.821Z,-1.80
2022-12-12T18:13:39.009Z,-1.80
2022-12-12T18:16:07.415Z,-1.90
2022-12-12T18:18:34.257Z,-1.90
2022-12-12T18:21:42.920Z,-1.90
2022-12-12T18:24:03.816Z,-2.00
2022-12-12T18:26:30.656Z,-2.10
2022-12-12T18:28:59.882Z,-2.10
2022-12-12T18:31:27.371Z,-2.20
2022-12-12T18:33:54.342Z,-2.20
2022-12-12T18:36:23.554Z,-2.20
2022-12-12T18:38:50.705Z,-2.20
2022-12-12T18:41:18.198Z,-2.20
2022-12-12T18:43:44.933Z,-2.20
2022-12-12T18:46:14.399Z,-2.30
2022-12-12T18:48:42.922Z,-2.30
2022-12-12T18:51:12.466Z,-2.40
2022-12-12T18:53:41.224Z,-2.40
2022-12-12T18:56:09.927Z,-2.40
2022-12-12T18:58:37.581Z,-2.50
2022-12-12T19:01:16.756Z,-2.50
2022-12-12T19:03:45.209Z,-2.50
2022-12-12T19:06:17.598Z,-2.60
2022-12-12T19:08:44.527Z,-2.60
2022-12-12T19:11:12.011Z,-2.60
2022-12-12T19:13:39.308Z,-2.60
2022-12-12T19:16:12.441Z,-2.60
2022-12-12T19:18:39.298Z,-2.60
2022-12-12T19:21:08.179Z,-2.70
2022-12-12T19:23:36.345Z,-2.70
2022-12-12T19:26:08.066Z,-2.70
2022-12-12T19:28:35.288Z,-2.80
2022-12-12T19:31:10.539Z,-2.80
2022-12-12T19:33:37.737Z,-2.80
2022-12-12T19:36:13.340Z,-2.80
2022-12-12T19:38:40.341Z,-2.80
2022-12-12T19:41:08.598Z,-2.80
2022-12-12T19:43:35.971Z,-2.90
2022-12-12T19:46:23.085Z,-3.00
2022-12-12T19:48:54.510Z,-3.00
2022-12-12T19:51:22.875Z,-3.00
2022-12-12T19:56:52.268Z,-3.10
2022-12-12T19:59:19.876Z,-3.10
2022-12-12T20:01:46.962Z,-3.10
2022-12-12T20:04:16.898Z,-3.20
2022-12-12T20:06:45.879Z,-3.20
2022-12-12T20:09:25.621Z,-3.20
2022-12-12T20:11:53.379Z,-3.20
2022-12-12T20:14:22.818Z,-3.20
2022-12-12T20:16:50.659Z,-3.20
2022-12-12T20:19:17.450Z,-3.30
2022-12-12T20:22:03.301Z,-3.30
2022-12-12T20:24:32.057Z,-3.30
2022-12-12T20:27:03.607Z,-3.40
2022-12-12T20:29:31.132Z,-3.30
2022-12-12T20:31:59.679Z,-3.30
2022-12-12T20:34:26.693Z,-3.30
2022-12-12T20:36:55.660Z,-3.30
2022-12-12T20:39:24.594Z,-3.40
2022-12-12T20:41:51.391Z,-3.40
2022-12-12T20:44:18.195Z,-3.40
2022-12-12T20:46:46.529Z,-3.40
2022-12-12T20:49:16.410Z,-3.40
2022-12-12T20:51:59.369Z,-3.40
2022-12-12T20:54:28.431Z,-3.50
2022-12-12T20:56:55.963Z,-3.50
2022-12-12T20:59:23.647Z,-3.50
2022-12-12T21:01:50.878Z,-3.40
2022-12-12T21:04:17.612Z,-3.50
2022-12-12T21:06:48.095Z,-3.50
2022-12-12T21:09:22.589Z,-3.50
2022-12-12T21:11:49.706Z,-3.50
2022-12-12T21:14:16.400Z,-3.60
2022-12-12T21:16:43.290Z,-3.60
2022-12-12T21:19:12.439Z,-3.50
2022-12-12T21:21:41.275Z,-3.60
2022-12-12T21:24:09.627Z,-3.60
2022-12-12T21:26:36.257Z,-3.60
2022-12-12T21:29:04.784Z,-3.70
2022-12-12T21:31:35.232Z,-3.70
2022-12-12T21:34:02.897Z,-3.70
2022-12-12T21:36:30.287Z,-3.70
2022-12-12T21:38:58.700Z,-3.70
2022-12-12T21:41:26.545Z,-3.70
2022-12-12T21:43:54.776Z,-3.70
2022-12-12T21:46:23.722Z,-3.70
2022-12-12T21:49:11.292Z,-3.70
2022-12-12T21:51:39.307Z,-3.70
2022-12-12T21:54:07.497Z,-3.70
2022-12-12T21:56:34.322Z,-3.70
2022-12-12T21:59:01.062Z,-3.70
2022-12-12T22:01:27.977Z,-3.70
2022-12-12T22:03:55.315Z,-3.70
2022-12-12T22:06:25.424Z,-3.70
2022-12-12T22:08:55.108Z,-3.70
2022-12-12T22:11:40.562Z,-3.80
2022-12-12T22:14:10.622Z,-3.90
2022-12-12T22:16:37.887Z,-3.90
2022-12-12T22:19:10.991Z,-3.90
2022-12-12T22:21:38.199Z,-3.80
2022-12-12T22:24:05.827Z,-3.80
2022-12-12T22:26:35.850Z,-3.80
2022-12-12T22:29:05.577Z,-3.90
2022-12-12T22:31:34.848Z,-3.90
2022-12-12T22:34:06.839Z,-3.90
2022-12-12T22:36:37.695Z,-3.90
2022-12-12T22:39:10.327Z,-4.00
2022-12-12T22:41:36.994Z,-4.00
2022-12-12T22:44:06.069Z,-4.00
2022-12-12T22:46:33.673Z,-4.00
2022-12-12T22:49:02.540Z,-4.00
2022-12-12T22:51:32.822Z,-3.90
2022-12-12T22:54:02.611Z,-3.90
2022-12-12T22:56:31.101Z,-4.00
2022-12-12T22:58:58.613Z,-4.00
2022-12-12T23:01:27.056Z,-4.00
2022-12-12T23:03:54.253Z,-4.00
2022-12-12T23:06:33.213Z,-4.00
2022-12-12T23:09:02.796Z,-4.00
2022-12-12T23:11:30.590Z,-4.10
2022-12-12T23:14:03.104Z,-4.10
2022-12-12T23:16:30.981Z,-4.10
2022-12-12T23:18:58.588Z,-4.20
2022-12-12T23:21:25.973Z,-4.20
2022-12-12T23:23:53.517Z,-4.20
2022-12-12T23:26:23.862Z,-4.20
2022-12-12T23:28:51.075Z,-4.20
2022-12-12T23:31:21.902Z,-4.30
2022-12-12T23:33:51.936Z,-4.20
2022-12-12T23:36:18.643Z,-4.20
2022-12-12T23:38:45.434Z,-4.20
2022-12-12T23:41:16.418Z,-4.20
2022-12-12T23:43:43.740Z,-4.20
2022-12-12T23:46:28.454Z,-4.20
2022-12-12T23:49:11.975Z,-4.30
2022-12-12T23:51:44.291Z,-4.40
2022-12-12T23:54:13.781Z,-4.40
2022-12-12T23:56:40.952Z,-4.40
2022-12-12T23:59:09.813Z,-4.50
